createdAt,value
2019-05-01T00:00:21.411Z,0.00
2019-05-01T00:01:21.399Z,0.00
2019-05-01T00:02:21.397Z,0.00
2019-05-01T00:03:21.376Z,0.00
2019-05-01T00:04:21.365Z,0.00
2019-05-01T00:05:21.354Z,0.00
2019-05-01T00:06:21.344Z,0.00
2019-05-01T00:07:21.332Z,0.00
2019-05-01T00:08:21.351Z,0.00
2019-05-01T00:09:21.311Z,0.00
2019-05-01T00:10:21.300Z,0.00
2019-05-01T00:11:21.287Z,0.00
2019-05-01T00:12:21.276Z,0.00
2019-05-01T00:13:21.264Z,0.00
2019-05-01T00:14:21.263Z,0.00
2019-05-01T00:15:21.244Z,0.00
2019-05-01T00:16:21.235Z,0.00
2019-05-01T00:17:21.221Z,0.00
2019-05-01T00:18:21.210Z,0.00
2019-05-01T00:19:21.200Z,0.00
2019-05-01T00:20:21.195Z,0.00
2019-05-01T00:21:21.177Z,0.00
2019-05-01T00:22:21.166Z,0.00
2019-05-01T00:23:21.156Z,0.00
2019-05-01T00:24:21.143Z,0.00
2019-05-01T00:25:21.133Z,0.00
2019-05-01T00:26:21.143Z,0.00
2019-05-01T00:27:21.111Z,0.00
2019-05-01T00:28:21.100Z,0.00
2019-05-01T00:29:21.088Z,0.00
2019-05-01T00:30:29.684Z,0.00
2019-05-01T00:31:22.095Z,0.00
2019-05-01T00:32:21.056Z,0.00
2019-05-01T00:33:21.045Z,0.00
2019-05-01T00:34:21.034Z,0.00
2019-05-01T00:35:21.026Z,0.00
2019-05-01T00:36:21.011Z,0.00
2019-05-01T00:37:21.044Z,0.00
2019-05-01T00:38:20.989Z,0.00
2019-05-01T00:39:20.978Z,0.00
2019-05-01T00:40:20.968Z,0.00
2019-05-01T00:41:20.955Z,0.00
2019-05-01T00:42:20.992Z,0.00
2019-05-01T00:43:20.941Z,0.00
2019-05-01T00:44:20.924Z,0.00
2019-05-01T00:45:20.913Z,0.00
2019-05-01T00:46:20.905Z,0.00
2019-05-01T00:47:20.890Z,0.00
2019-05-01T00:48:20.883Z,0.00
2019-05-01T00:49:20.875Z,0.00
2019-05-01T00:50:20.857Z,0.00
2019-05-01T00:51:20.846Z,0.00
2019-05-01T00:52:20.839Z,0.00
2019-05-01T00:53:20.825Z,0.00
2019-05-01T00:54:20.813Z,0.00
2019-05-01T00:55:20.807Z,0.00
2019-05-01T00:56:20.791Z,0.00
2019-05-01T00:57:20.779Z,0.00
2019-05-01T00:58:20.770Z,0.00
2019-05-01T00:59:20.758Z,0.00
2019-05-01T01:00:20.748Z,0.00
2019-05-01T01:01:20.755Z,0.00
2019-05-01T01:02:20.723Z,0.00
2019-05-01T01:03:20.713Z,0.00
2019-05-01T01:04:20.704Z,0.00
2019-05-01T01:05:20.692Z,0.00
2019-05-01T01:06:20.682Z,0.00
2019-05-01T01:07:20.703Z,0.00
2019-05-01T01:08:20.657Z,0.00
2019-05-01T01:09:20.646Z,0.00
2019-05-01T01:10:20.635Z,0.00
2019-05-01T01:11:20.624Z,0.00
2019-05-01T01:12:20.612Z,0.00
2019-05-01T01:13:20.631Z,0.00
2019-05-01T01:14:20.593Z,0.00
2019-05-01T01:15:20.581Z,0.00
2019-05-01T01:16:20.569Z,0.00
2019-05-01T01:17:20.558Z,0.00
2019-05-01T01:18:20.548Z,0.00
2019-05-01T01:19:20.544Z,0.00
2019-05-01T01:20:20.524Z,0.00
2019-05-01T01:21:20.513Z,0.00
2019-05-01T01:22:20.503Z,0.00
2019-05-01T01:23:20.492Z,0.00
2019-05-01T01:24:20.480Z,0.00
2019-05-01T01:25:20.497Z,0.00
2019-05-01T01:26:20.458Z,0.00
2019-05-01T01:27:20.448Z,0.00
2019-05-01T01:28:20.436Z,0.00
2019-05-01T01:29:20.426Z,0.00
2019-05-01T01:30:20.414Z,0.00
2019-05-01T01:31:20.410Z,0.00
2019-05-01T01:32:20.391Z,0.00
2019-05-01T01:33:20.380Z,0.00
2019-05-01T01:34:20.370Z,0.00
2019-05-01T01:35:20.358Z,0.00
2019-05-01T01:36:20.347Z,0.00
2019-05-01T01:37:20.365Z,0.00
2019-05-01T01:38:20.324Z,0.00
2019-05-01T01:39:20.317Z,0.00
2019-05-01T01:40:20.303Z,0.00
2019-05-01T01:41:20.291Z,0.00
2019-05-01T01:42:20.280Z,0.00
2019-05-01T01:43:20.301Z,0.00
2019-05-01T01:44:20.270Z,0.00
2019-05-01T01:45:20.247Z,0.00
2019-05-01T01:46:20.237Z,0.00
2019-05-01T01:47:20.226Z,0.00
2019-05-01T01:48:20.214Z,0.00
2019-05-01T01:49:20.209Z,0.00
2019-05-01T01:50:20.192Z,0.00
2019-05-01T01:51:20.182Z,0.00
2019-05-01T01:52:20.171Z,0.00
2019-05-01T01:53:20.160Z,0.00
2019-05-01T01:54:20.151Z,0.00
2019-05-01T01:55:20.144Z,0.00
2019-05-01T01:56:20.126Z,0.00
2019-05-01T01:57:20.115Z,0.00
2019-05-01T01:58:20.103Z,0.00
2019-05-01T01:59:20.093Z,0.00
2019-05-01T02:00:20.082Z,0.00
2019-05-01T02:01:20.077Z,0.00
2019-05-01T02:02:20.059Z,0.00
2019-05-01T02:03:20.048Z,0.00
2019-05-01T02:04:20.037Z,0.00
2019-05-01T02:05:20.026Z,0.00
2019-05-01T02:06:20.015Z,0.00
2019-05-01T02:07:20.039Z,0.00
2019-05-01T02:08:19.998Z,0.00
2019-05-01T02:09:19.982Z,0.00
2019-05-01T02:10:20.004Z,0.00
2019-05-01T02:11:20.022Z,0.00
2019-05-01T02:12:19.949Z,0.00
2019-05-01T02:13:19.944Z,0.00
2019-05-01T02:14:19.926Z,0.00
2019-05-01T02:15:19.915Z,0.00
2019-05-01T02:16:19.904Z,0.00
2019-05-01T02:17:19.895Z,0.00
2019-05-01T02:18:19.883Z,0.00
2019-05-01T02:19:19.893Z,0.00
2019-05-01T02:20:19.860Z,0.00
2019-05-01T02:21:19.849Z,0.00
2019-05-01T02:22:19.840Z,0.00
2019-05-01T02:23:19.826Z,0.00
2019-05-01T02:24:19.816Z,0.00
2019-05-01T02:25:19.812Z,0.00
2019-05-01T02:26:19.795Z,0.00
2019-05-01T02:27:19.782Z,0.00
2019-05-01T02:28:19.771Z,0.00
2019-05-01T02:29:19.761Z,0.00
2019-05-01T02:30:19.750Z,0.00
2019-05-01T02:31:28.446Z,0.00
2019-05-01T02:32:20.728Z,0.00
2019-05-01T02:33:19.717Z,0.00
2019-05-01T02:34:19.709Z,0.00
2019-05-01T02:35:19.707Z,0.00
2019-05-01T02:36:19.687Z,0.00
2019-05-01T02:37:19.678Z,0.00
2019-05-01T02:38:19.663Z,0.00
2019-05-01T02:39:19.652Z,0.00
2019-05-01T02:40:19.639Z,0.00
2019-05-01T02:41:19.628Z,0.00
2019-05-01T02:42:19.617Z,0.00
2019-05-01T02:43:19.613Z,0.00
2019-05-01T02:44:19.596Z,0.00
2019-05-01T02:45:19.585Z,0.00
2019-05-01T02:46:19.573Z,0.00
2019-05-01T02:47:19.563Z,0.00
2019-05-01T02:48:19.550Z,0.00
2019-05-01T02:49:19.547Z,0.00
2019-05-01T02:50:19.528Z,0.00
2019-05-01T02:51:19.517Z,0.00
2019-05-01T02:52:19.507Z,0.00
2019-05-01T02:53:19.495Z,0.00
2019-05-01T02:54:19.484Z,0.00
2019-05-01T02:55:19.503Z,0.00
2019-05-01T02:56:19.464Z,0.00
2019-05-01T02:57:19.450Z,0.00
2019-05-01T02:58:19.440Z,0.00
2019-05-01T02:59:19.428Z,0.00
2019-05-01T03:00:19.417Z,0.00
2019-05-01T03:01:19.431Z,0.00
2019-05-01T03:02:19.397Z,0.00
2019-05-01T03:03:19.391Z,0.00
2019-05-01T03:04:19.373Z,0.00
2019-05-01T03:05:19.362Z,0.00
2019-05-01T03:06:19.351Z,0.00
2019-05-01T03:07:19.348Z,0.00
2019-05-01T03:08:19.329Z,0.00
2019-05-01T03:09:19.318Z,0.00
2019-05-01T03:10:19.307Z,0.00
2019-05-01T03:11:19.296Z,0.00
2019-05-01T03:12:19.288Z,0.00
2019-05-01T03:13:19.304Z,0.00
2019-05-01T03:14:19.263Z,0.00
2019-05-01T03:15:19.256Z,0.00
2019-05-01T03:16:19.241Z,0.00
2019-05-01T03:17:19.233Z,0.00
2019-05-01T03:18:19.219Z,0.00
2019-05-01T03:19:19.235Z,0.00
2019-05-01T03:20:19.197Z,0.00
2019-05-01T03:21:19.184Z,0.00
2019-05-01T03:22:19.174Z,0.00
2019-05-01T03:23:19.166Z,0.00
2019-05-01T03:24:19.153Z,0.00
2019-05-01T03:25:19.163Z,0.00
2019-05-01T03:26:19.131Z,0.00
2019-05-01T03:27:19.119Z,0.00
2019-05-01T03:28:19.108Z,0.00
2019-05-01T03:29:19.100Z,0.00
2019-05-01T03:30:19.095Z,0.00
2019-05-01T03:31:19.101Z,0.00
2019-05-01T03:32:19.894Z,0.00
2019-05-01T03:33:19.058Z,0.00
2019-05-01T03:34:19.041Z,0.00
2019-05-01T03:35:19.032Z,0.00
2019-05-01T03:36:19.019Z,0.00
2019-05-01T03:37:19.038Z,0.00
2019-05-01T03:38:18.997Z,0.00
2019-05-01T03:39:18.988Z,0.00
2019-05-01T03:40:18.977Z,0.00
2019-05-01T03:41:18.965Z,0.00
2019-05-01T03:42:18.953Z,0.00
2019-05-01T03:43:18.952Z,0.00
2019-05-01T03:44:18.929Z,0.00
2019-05-01T03:45:18.932Z,0.00
2019-05-01T03:46:18.923Z,0.00
2019-05-01T03:47:18.897Z,0.00
2019-05-01T03:48:18.887Z,0.00
2019-05-01T03:49:18.887Z,0.00
2019-05-01T03:50:18.864Z,0.00
2019-05-01T03:51:18.855Z,0.00
2019-05-01T03:52:18.842Z,0.00
2019-05-01T03:53:18.830Z,0.00
2019-05-01T03:54:18.823Z,4.00
2019-05-01T03:55:18.843Z,4.00
2019-05-01T03:56:18.805Z,4.00
2019-05-01T03:57:18.787Z,4.00
2019-05-01T03:58:18.780Z,4.00
2019-05-01T03:59:18.768Z,4.00
2019-05-01T04:00:18.753Z,4.00
2019-05-01T04:01:18.774Z,4.00
2019-05-01T04:02:32.811Z,0.00
2019-05-01T04:03:19.719Z,0.00
2019-05-01T04:04:18.709Z,0.00
2019-05-01T04:05:18.705Z,0.00
2019-05-01T04:06:18.690Z,0.00
2019-05-01T04:07:18.704Z,4.00
2019-05-01T04:08:18.666Z,4.00
2019-05-01T04:09:18.656Z,4.00
2019-05-01T04:10:18.644Z,4.00
2019-05-01T04:11:18.631Z,4.00
2019-05-01T04:12:18.620Z,0.00
2019-05-01T04:13:18.618Z,0.00
2019-05-01T04:14:18.600Z,0.00
2019-05-01T04:15:18.590Z,4.00
2019-05-01T04:16:18.577Z,4.00
2019-05-01T04:17:18.566Z,4.00
2019-05-01T04:18:18.556Z,4.00
2019-05-01T04:19:18.552Z,4.00
2019-05-01T04:20:18.533Z,4.00
2019-05-01T04:21:18.527Z,4.00
2019-05-01T04:22:18.512Z,4.00
2019-05-01T04:23:18.500Z,4.00
2019-05-01T04:24:18.491Z,4.00
2019-05-01T04:25:18.488Z,8.00
2019-05-01T04:26:18.469Z,8.00
2019-05-01T04:27:18.462Z,8.00
2019-05-01T04:28:18.446Z,8.00
2019-05-01T04:29:18.435Z,8.00
2019-05-01T04:30:18.426Z,4.00
2019-05-01T04:31:18.440Z,4.00
2019-05-01T04:32:18.416Z,4.00
2019-05-01T04:33:18.389Z,4.00
2019-05-01T04:34:18.378Z,4.00
2019-05-01T04:35:18.367Z,4.00
2019-05-01T04:36:18.356Z,4.00
2019-05-01T04:37:18.377Z,8.00
2019-05-01T04:38:18.336Z,8.00
2019-05-01T04:39:18.322Z,8.00
2019-05-01T04:40:19.199Z,8.00
2019-05-01T04:41:18.301Z,8.00
2019-05-01T04:42:18.290Z,8.00
2019-05-01T04:43:18.301Z,8.00
2019-05-01T04:44:18.268Z,8.00
2019-05-01T04:45:18.257Z,8.00
2019-05-01T04:46:18.253Z,8.00
2019-05-01T04:47:18.239Z,8.00
2019-05-01T04:48:18.224Z,8.00
2019-05-01T04:49:18.285Z,8.00
2019-05-01T04:50:18.201Z,8.00
2019-05-01T04:51:18.191Z,8.00
2019-05-01T04:52:18.187Z,8.00
2019-05-01T04:53:18.168Z,8.00
2019-05-01T04:54:18.159Z,8.00
2019-05-01T04:55:18.155Z,8.00
2019-05-01T04:56:18.133Z,8.00
2019-05-01T04:57:18.124Z,8.00
2019-05-01T04:58:18.114Z,8.00
2019-05-01T04:59:18.101Z,8.00
2019-05-01T05:00:18.094Z,12.00
2019-05-01T05:01:18.089Z,12.00
2019-05-01T05:02:18.068Z,12.00
2019-05-01T05:03:18.057Z,8.00
2019-05-01T05:04:18.046Z,8.00
2019-05-01T05:05:18.036Z,12.00
2019-05-01T05:06:18.023Z,12.00
2019-05-01T05:07:18.040Z,12.00
2019-05-01T05:08:18.001Z,12.00
2019-05-01T05:09:17.990Z,12.00
2019-05-01T05:10:17.987Z,12.00
2019-05-01T05:11:17.968Z,12.00
2019-05-01T05:12:17.957Z,16.00
2019-05-01T05:13:17.959Z,16.00
2019-05-01T05:14:17.937Z,16.00
2019-05-01T05:15:17.925Z,20.00
2019-05-01T05:16:17.914Z,20.00
2019-05-01T05:17:17.901Z,20.00
2019-05-01T05:18:17.891Z,20.00
2019-05-01T05:19:17.888Z,24.00
2019-05-01T05:20:17.870Z,24.00
2019-05-01T05:21:17.857Z,24.00
2019-05-01T05:22:17.850Z,24.00
2019-05-01T05:23:17.836Z,24.00
2019-05-01T05:24:17.825Z,24.00
2019-05-01T05:25:17.820Z,24.00
2019-05-01T05:26:17.803Z,24.00
2019-05-01T05:27:17.791Z,20.00
2019-05-01T05:28:17.780Z,24.00
2019-05-01T05:29:17.770Z,24.00
2019-05-01T05:30:17.758Z,24.00
2019-05-01T05:31:17.755Z,24.00
2019-05-01T05:32:17.739Z,24.00
2019-05-01T05:33:18.886Z,24.00
2019-05-01T05:34:18.259Z,24.00
2019-05-01T05:35:17.718Z,24.00
2019-05-01T05:36:17.691Z,24.00
2019-05-01T05:37:17.687Z,28.00
2019-05-01T05:38:17.670Z,24.00
2019-05-01T05:39:17.660Z,24.00
2019-05-01T05:40:17.647Z,28.00
2019-05-01T05:41:17.636Z,32.00
2019-05-01T05:42:17.625Z,32.00
2019-05-01T05:43:17.648Z,32.00
2019-05-01T05:44:17.603Z,32.00
2019-05-01T05:45:17.592Z,28.00
2019-05-01T05:46:17.581Z,32.00
2019-05-01T05:47:17.571Z,28.00
2019-05-01T05:48:17.558Z,28.00
2019-05-01T05:49:17.578Z,36.00
2019-05-01T05:50:17.537Z,40.00
2019-05-01T05:51:17.526Z,40.00
2019-05-01T05:52:17.515Z,44.00
2019-05-01T05:53:17.504Z,44.00
2019-05-01T05:54:17.492Z,44.00
2019-05-01T05:55:17.502Z,48.00
2019-05-01T05:56:17.471Z,44.00
2019-05-01T05:57:17.459Z,44.00
2019-05-01T05:58:17.448Z,44.00
2019-05-01T05:59:17.437Z,44.00
2019-05-01T06:00:17.426Z,48.00
2019-05-01T06:01:17.422Z,52.00
2019-05-01T06:02:17.404Z,52.00
2019-05-01T06:03:17.393Z,56.00
2019-05-01T06:04:17.382Z,52.00
2019-05-01T06:05:17.371Z,56.00
2019-05-01T06:06:17.360Z,56.00
2019-05-01T06:07:17.356Z,48.00
2019-05-01T06:08:17.337Z,48.00
2019-05-01T06:09:17.326Z,44.00
2019-05-01T06:10:18.562Z,44.00
2019-05-01T06:11:18.303Z,44.00
2019-05-01T06:12:17.292Z,44.00
2019-05-01T06:13:17.961Z,48.00
2019-05-01T06:14:17.270Z,48.00
2019-05-01T06:15:17.260Z,48.00
2019-05-01T06:16:17.427Z,52.00
2019-05-01T06:17:17.238Z,52.00
2019-05-01T06:18:17.227Z,56.00
2019-05-01T06:19:17.245Z,48.00
2019-05-01T06:20:20.754Z,48.00
2019-05-01T06:21:18.193Z,44.00
2019-05-01T06:22:17.182Z,40.00
2019-05-01T06:23:20.721Z,40.00
2019-05-01T06:24:18.189Z,36.00
2019-05-01T06:25:22.444Z,40.00
2019-05-01T06:26:18.137Z,36.00
2019-05-01T06:27:17.127Z,36.00
2019-05-01T06:28:19.826Z,36.00
2019-05-01T06:29:18.105Z,36.00
2019-05-01T06:30:17.100Z,36.00
2019-05-01T06:31:17.797Z,32.00
2019-05-01T06:32:18.071Z,32.00
2019-05-01T06:33:17.061Z,32.00
2019-05-01T06:34:17.050Z,28.00
2019-05-01T06:35:17.040Z,28.00
2019-05-01T06:36:17.035Z,28.00
2019-05-01T06:37:20.881Z,28.00
2019-05-01T06:38:18.005Z,28.00
2019-05-01T06:39:16.994Z,28.00
2019-05-01T06:40:18.784Z,28.00
2019-05-01T06:41:17.997Z,32.00
2019-05-01T06:42:17.020Z,32.00
2019-05-01T06:43:20.109Z,32.00
2019-05-01T06:44:17.939Z,36.00
2019-05-01T06:45:17.922Z,36.00
2019-05-01T06:46:16.917Z,40.00
2019-05-01T06:47:16.915Z,44.00
2019-05-01T06:48:17.879Z,44.00
2019-05-01T06:49:16.883Z,40.00
2019-05-01T06:50:16.872Z,40.00
2019-05-01T06:51:17.679Z,40.00
2019-05-01T06:52:16.850Z,40.00
2019-05-01T06:53:16.860Z,40.00
2019-05-01T06:54:17.709Z,40.00
2019-05-01T06:55:16.822Z,40.00
2019-05-01T06:56:16.806Z,44.00
2019-05-01T06:57:16.794Z,48.00
2019-05-01T06:58:20.367Z,48.00
2019-05-01T06:59:16.801Z,44.00
2019-05-01T07:00:16.762Z,48.00
2019-05-01T07:01:19.229Z,52.00
2019-05-01T07:02:17.738Z,48.00
2019-05-01T07:03:16.729Z,52.00
2019-05-01T07:04:16.718Z,48.00
2019-05-01T07:05:16.716Z,52.00
2019-05-01T07:06:16.696Z,52.00
2019-05-01T07:07:24.949Z,52.00
2019-05-01T07:08:24.453Z,52.00
2019-05-01T07:09:27.739Z,52.00
2019-05-01T07:10:29.754Z,52.00
2019-05-01T07:11:17.659Z,48.00
2019-05-01T07:12:16.629Z,44.00
2019-05-01T07:13:16.621Z,44.00
2019-05-01T07:14:17.639Z,40.00
2019-05-01T07:15:16.599Z,40.00
2019-05-01T07:16:16.594Z,40.00
2019-05-01T07:17:16.575Z,40.00
2019-05-01T07:18:18.825Z,40.00
2019-05-01T07:19:17.554Z,40.00
2019-05-01T07:20:18.089Z,36.00
2019-05-01T07:21:16.530Z,36.00
2019-05-01T07:22:16.546Z,36.00
2019-05-01T07:23:17.397Z,32.00
2019-05-01T07:24:16.496Z,32.00
2019-05-01T07:25:16.487Z,32.00
2019-05-01T07:26:16.477Z,28.00
2019-05-01T07:27:18.866Z,32.00
2019-05-01T07:28:17.472Z,32.00
2019-05-01T07:29:16.442Z,32.00
2019-05-01T07:30:19.633Z,36.00
2019-05-01T07:31:16.420Z,40.00
2019-05-01T07:32:16.423Z,36.00
2019-05-01T07:33:17.813Z,40.00
2019-05-01T07:34:17.041Z,40.00
2019-05-01T07:35:16.381Z,40.00
2019-05-01T07:36:16.557Z,40.00
2019-05-01T07:37:16.353Z,44.00
2019-05-01T07:38:16.359Z,48.00
2019-05-01T07:39:16.358Z,52.00
2019-05-01T07:40:16.341Z,56.00
2019-05-01T07:41:16.310Z,56.00
2019-05-01T07:42:16.300Z,60.00
2019-05-01T07:43:19.007Z,60.00
2019-05-01T07:44:17.275Z,64.00
2019-05-01T07:45:16.266Z,64.00
2019-05-01T07:46:18.433Z,68.00
2019-05-01T07:47:16.249Z,68.00
2019-05-01T07:48:16.231Z,68.00
2019-05-01T07:49:17.705Z,72.00
2019-05-01T07:50:16.211Z,72.00
2019-05-01T07:51:16.199Z,72.00
2019-05-01T07:52:17.212Z,68.00
2019-05-01T07:53:16.176Z,68.00
2019-05-01T07:54:16.166Z,64.00
2019-05-01T07:55:18.146Z,64.00
2019-05-01T07:56:17.280Z,68.00
2019-05-01T07:57:16.132Z,68.00
2019-05-01T07:58:17.966Z,68.00
2019-05-01T07:59:16.110Z,64.00
2019-05-01T08:00:16.104Z,64.00
2019-05-01T08:01:18.462Z,64.00
2019-05-01T08:02:16.076Z,64.00
2019-05-01T08:03:16.066Z,68.00
2019-05-01T08:04:18.468Z,68.00
2019-05-01T08:05:17.042Z,76.00
2019-05-01T08:06:21.007Z,80.00
2019-05-01T08:07:17.021Z,76.00
2019-05-01T08:08:16.013Z,84.00
2019-05-01T08:09:16.461Z,76.00
2019-05-01T08:10:16.009Z,80.00
2019-05-01T08:11:15.978Z,80.00
2019-05-01T08:12:18.918Z,80.00
2019-05-01T08:13:16.957Z,84.00
2019-05-01T08:14:16.633Z,88.00
2019-05-01T08:15:15.933Z,100.00
2019-05-01T08:16:15.955Z,108.00
2019-05-01T08:17:17.936Z,132.00
2019-05-01T08:18:15.901Z,140.00
2019-05-01T08:19:15.889Z,120.00
2019-05-01T08:20:16.835Z,140.00
2019-05-01T08:21:15.867Z,156.00
2019-05-01T08:22:15.879Z,164.00
2019-05-01T08:23:15.846Z,164.00
2019-05-01T08:24:18.015Z,168.00
2019-05-01T08:25:16.821Z,164.00
2019-05-01T08:26:15.813Z,152.00
2019-05-01T08:27:20.142Z,148.00
2019-05-01T08:28:16.817Z,160.00
2019-05-01T08:29:15.780Z,160.00
2019-05-01T08:30:17.444Z,148.00
2019-05-01T08:31:15.757Z,152.00
2019-05-01T08:32:15.745Z,168.00
2019-05-01T08:33:16.065Z,148.00
2019-05-01T08:34:15.730Z,144.00
2019-05-01T08:35:15.713Z,156.00
2019-05-01T08:36:15.702Z,160.00
2019-05-01T08:37:17.922Z,160.00
2019-05-01T08:38:16.677Z,172.00
2019-05-01T08:39:15.670Z,172.00
2019-05-01T08:40:20.085Z,164.00
2019-05-01T08:41:15.645Z,156.00
2019-05-01T08:42:15.637Z,156.00
2019-05-01T08:43:18.001Z,140.00
2019-05-01T08:44:15.612Z,160.00
2019-05-01T08:45:15.601Z,120.00
2019-05-01T08:46:16.485Z,160.00
2019-05-01T08:47:15.580Z,156.00
2019-05-01T08:48:15.575Z,140.00
2019-05-01T08:49:15.556Z,160.00
2019-05-01T08:50:15.547Z,144.00
2019-05-01T08:51:15.535Z,132.00
2019-05-01T08:52:15.531Z,152.00
2019-05-01T08:53:18.108Z,128.00
2019-05-01T08:54:16.501Z,120.00
2019-05-01T08:55:15.494Z,164.00
2019-05-01T08:56:16.909Z,168.00
2019-05-01T08:57:16.501Z,164.00
2019-05-01T08:58:15.957Z,132.00
2019-05-01T08:59:15.448Z,128.00
2019-05-01T09:00:15.442Z,128.00
2019-05-01T09:01:16.395Z,116.00
2019-05-01T09:02:15.414Z,112.00
2019-05-01T09:03:18.546Z,104.00
2019-05-01T09:04:15.393Z,104.00
2019-05-01T09:05:28.289Z,124.00
2019-05-01T09:06:16.367Z,112.00
2019-05-01T09:07:19.063Z,108.00
2019-05-01T09:08:16.364Z,116.00
2019-05-01T09:09:15.337Z,112.00
2019-05-01T09:10:16.958Z,104.00
2019-05-01T09:11:16.316Z,108.00
2019-05-01T09:12:15.302Z,104.00
2019-05-01T09:13:18.826Z,128.00
2019-05-01T09:14:16.309Z,124.00
2019-05-01T09:15:15.269Z,128.00
2019-05-01T09:16:15.258Z,120.00
2019-05-01T09:17:15.246Z,140.00
2019-05-01T09:18:15.236Z,124.00
2019-05-01T09:19:15.225Z,128.00
2019-05-01T09:20:16.770Z,124.00
2019-05-01T09:21:15.205Z,132.00
2019-05-01T09:22:15.192Z,124.00
2019-05-01T09:23:16.181Z,124.00
2019-05-01T09:24:15.170Z,180.00
2019-05-01T09:25:15.159Z,152.00
2019-05-01T09:26:16.280Z,192.00
2019-05-01T09:27:15.137Z,164.00
2019-05-01T09:28:15.126Z,116.00
2019-05-01T09:29:16.000Z,120.00
2019-05-01T09:30:15.103Z,124.00
2019-05-01T09:31:15.092Z,120.00
2019-05-01T09:32:15.087Z,116.00
2019-05-01T09:33:15.071Z,120.00
2019-05-01T09:34:19.225Z,108.00
2019-05-01T09:35:16.339Z,108.00
2019-05-01T09:36:15.038Z,112.00
2019-05-01T09:37:15.026Z,108.00
2019-05-01T09:38:15.023Z,112.00
2019-05-01T09:39:15.004Z,116.00
2019-05-01T09:40:14.993Z,120.00
2019-05-01T09:41:14.982Z,112.00
2019-05-01T09:42:23.196Z,108.00
2019-05-01T09:43:15.975Z,116.00
2019-05-01T09:44:14.949Z,112.00
2019-05-01T09:45:14.939Z,120.00
2019-05-01T09:46:14.927Z,120.00
2019-05-01T09:47:14.916Z,124.00
2019-05-01T09:48:14.909Z,132.00
2019-05-01T09:49:18.228Z,128.00
2019-05-01T09:50:14.883Z,128.00
2019-05-01T09:51:14.872Z,128.00
2019-05-01T09:52:18.818Z,132.00
2019-05-01T09:53:15.848Z,144.00
2019-05-01T09:54:14.839Z,156.00
2019-05-01T09:55:17.839Z,160.00
2019-05-01T09:56:15.815Z,192.00
2019-05-01T09:57:14.807Z,132.00
2019-05-01T09:58:14.795Z,120.00
2019-05-01T09:59:17.496Z,116.00
2019-05-01T10:00:14.773Z,116.00
2019-05-01T10:01:14.770Z,112.00
2019-05-01T10:02:14.751Z,112.00
2019-05-01T10:03:16.881Z,120.00
2019-05-01T10:04:14.729Z,200.00
2019-05-01T10:05:14.718Z,200.00
2019-05-01T10:06:17.133Z,168.00
2019-05-01T10:07:14.717Z,236.00
2019-05-01T10:08:14.686Z,236.00
2019-05-01T10:09:17.060Z,228.00
2019-05-01T10:10:14.663Z,196.00
2019-05-01T10:11:14.654Z,172.00
2019-05-01T10:12:14.645Z,148.00
2019-05-01T10:13:17.725Z,228.00
2019-05-01T10:14:15.617Z,180.00
2019-05-01T10:15:14.609Z,228.00
2019-05-01T10:16:14.598Z,244.00
2019-05-01T10:17:14.586Z,192.00
2019-05-01T10:18:14.574Z,164.00
2019-05-01T10:19:14.587Z,188.00
2019-05-01T10:20:14.553Z,180.00
2019-05-01T10:21:14.541Z,176.00
2019-05-01T10:22:14.530Z,212.00
2019-05-01T10:23:15.039Z,208.00
2019-05-01T10:24:14.508Z,248.00
2019-05-01T10:25:14.504Z,252.00
2019-05-01T10:26:14.486Z,232.00
2019-05-01T10:27:17.033Z,184.00
2019-05-01T10:28:17.389Z,256.00
2019-05-01T10:29:14.454Z,260.00
2019-05-01T10:30:14.442Z,256.00
2019-05-01T10:31:14.460Z,228.00
2019-05-01T10:32:16.847Z,252.00
2019-05-01T10:33:15.408Z,252.00
2019-05-01T10:34:14.398Z,240.00
2019-05-01T10:35:19.414Z,236.00
2019-05-01T10:36:18.860Z,256.00
2019-05-01T10:37:15.364Z,264.00
2019-05-01T10:38:14.357Z,268.00
2019-05-01T10:39:16.065Z,268.00
2019-05-01T10:40:15.330Z,268.00
2019-05-01T10:41:14.321Z,272.00
2019-05-01T10:42:14.329Z,272.00
2019-05-01T10:43:14.298Z,272.00
2019-05-01T10:44:14.288Z,272.00
2019-05-01T10:45:14.277Z,268.00
2019-05-01T10:46:14.267Z,252.00
2019-05-01T10:47:14.255Z,256.00
2019-05-01T10:48:14.263Z,216.00
2019-05-01T10:49:14.232Z,168.00
2019-05-01T10:50:14.221Z,272.00
2019-05-01T10:51:14.211Z,276.00
2019-05-01T10:52:14.705Z,284.00
2019-05-01T10:53:14.188Z,280.00
2019-05-01T10:54:14.185Z,284.00
2019-05-01T10:55:14.220Z,280.00
2019-05-01T10:56:14.159Z,276.00
2019-05-01T10:57:14.145Z,272.00
2019-05-01T10:58:18.387Z,264.00
2019-05-01T10:59:15.156Z,276.00
2019-05-01T11:00:14.113Z,272.00
2019-05-01T11:01:14.101Z,284.00
2019-05-01T11:02:14.089Z,288.00
2019-05-01T11:03:14.078Z,300.00
2019-05-01T11:04:14.067Z,300.00
2019-05-01T11:05:14.086Z,304.00
2019-05-01T11:06:14.046Z,300.00
2019-05-01T11:07:14.034Z,304.00
2019-05-01T11:08:14.026Z,304.00
2019-05-01T11:09:14.012Z,308.00
2019-05-01T11:10:14.002Z,308.00
2019-05-01T11:11:13.999Z,300.00
2019-05-01T11:12:13.979Z,288.00
2019-05-01T11:13:13.968Z,304.00
2019-05-01T11:14:13.958Z,308.00
2019-05-01T11:15:13.946Z,312.00
2019-05-01T11:16:13.935Z,312.00
2019-05-01T11:17:13.931Z,276.00
2019-05-01T11:18:13.914Z,252.00
2019-05-01T11:19:13.901Z,208.00
2019-05-01T11:20:13.902Z,268.00
2019-05-01T11:21:13.882Z,244.00
2019-05-01T11:22:13.868Z,292.00
2019-05-01T11:23:13.879Z,304.00
2019-05-01T11:24:13.846Z,216.00
2019-05-01T11:25:13.836Z,320.00
2019-05-01T11:26:13.824Z,272.00
2019-05-01T11:27:13.813Z,328.00
2019-05-01T11:28:13.802Z,340.00
2019-05-01T11:29:13.811Z,328.00
2019-05-01T11:30:13.781Z,260.00
2019-05-01T11:31:13.826Z,220.00
2019-05-01T11:32:13.759Z,216.00
2019-05-01T11:33:13.748Z,340.00
2019-05-01T11:34:13.736Z,232.00
2019-05-01T11:35:13.746Z,196.00
2019-05-01T11:36:13.715Z,192.00
2019-05-01T11:37:13.703Z,148.00
2019-05-01T11:38:13.695Z,140.00
2019-05-01T11:39:13.682Z,148.00
2019-05-01T11:40:13.670Z,156.00
2019-05-01T11:41:13.679Z,236.00
2019-05-01T11:42:13.647Z,268.00
2019-05-01T11:43:13.640Z,320.00
2019-05-01T11:44:13.626Z,204.00
2019-05-01T11:45:13.614Z,248.00
2019-05-01T11:46:13.604Z,216.00
2019-05-01T11:47:13.599Z,240.00
2019-05-01T11:48:13.581Z,332.00
2019-05-01T11:49:13.576Z,336.00
2019-05-01T11:50:13.564Z,268.00
2019-05-01T11:51:13.592Z,272.00
2019-05-01T11:52:13.538Z,324.00
2019-05-01T11:53:13.556Z,352.00
2019-05-01T11:54:13.521Z,352.00
2019-05-01T11:55:13.504Z,348.00
2019-05-01T11:56:13.493Z,332.00
2019-05-01T11:57:13.482Z,332.00
2019-05-01T11:58:13.471Z,352.00
2019-05-01T11:59:13.479Z,344.00
2019-05-01T12:00:13.448Z,352.00
2019-05-01T12:01:13.437Z,352.00
2019-05-01T12:02:13.428Z,348.00
2019-05-01T12:03:13.416Z,348.00
2019-05-01T12:04:13.404Z,356.00
2019-05-01T12:05:13.423Z,356.00
2019-05-01T12:06:22.659Z,328.00
2019-05-01T12:07:14.370Z,312.00
2019-05-01T12:08:13.362Z,348.00
2019-05-01T12:09:13.349Z,368.00
2019-05-01T12:10:14.443Z,384.00
2019-05-01T12:11:13.348Z,332.00
2019-05-01T12:12:13.317Z,356.00
2019-05-01T12:13:13.305Z,388.00
2019-05-01T12:14:13.294Z,388.00
2019-05-01T12:15:13.294Z,392.00
2019-05-01T12:16:13.273Z,380.00
2019-05-01T12:17:13.267Z,400.00
2019-05-01T12:18:13.252Z,380.00
2019-05-01T12:19:13.239Z,388.00
2019-05-01T12:20:13.231Z,240.00
2019-05-01T12:21:13.217Z,252.00
2019-05-01T12:22:13.208Z,396.00
2019-05-01T12:23:13.223Z,332.00
2019-05-01T12:24:13.186Z,432.00
2019-05-01T12:25:13.174Z,440.00
2019-05-01T12:26:13.162Z,440.00
2019-05-01T12:27:13.151Z,424.00
2019-05-01T12:28:13.144Z,276.00
2019-05-01T12:29:13.161Z,432.00
2019-05-01T12:30:13.120Z,448.00
2019-05-01T12:31:13.110Z,268.00
2019-05-01T12:32:13.097Z,436.00
2019-05-01T12:33:13.085Z,380.00
2019-05-01T12:34:13.077Z,356.00
2019-05-01T12:35:13.069Z,444.00
2019-05-01T12:36:13.052Z,448.00
2019-05-01T12:37:13.041Z,460.00
2019-05-01T12:38:13.032Z,244.00
2019-05-01T12:39:13.019Z,468.00
2019-05-01T12:40:13.008Z,284.00
2019-05-01T12:41:13.028Z,232.00
2019-05-01T12:42:12.987Z,196.00
2019-05-01T12:43:12.976Z,236.00
2019-05-01T12:44:12.964Z,296.00
2019-05-01T12:45:12.953Z,224.00
2019-05-01T12:46:12.943Z,208.00
2019-05-01T12:47:12.958Z,224.00
2019-05-01T12:48:12.921Z,276.00
2019-05-01T12:49:15.739Z,336.00
2019-05-01T12:50:12.899Z,228.00
2019-05-01T12:51:12.889Z,224.00
2019-05-01T12:52:12.876Z,324.00
2019-05-01T12:53:12.876Z,504.00